createdAt,value
2022-10-29T00:00:56.263Z,10.08
2022-10-29T00:03:27.869Z,15.58
2022-10-29T00:06:00.907Z,10.30
2022-10-29T00:08:33.050Z,9.85
2022-10-29T00:11:21.517Z,9.40
2022-10-29T00:13:54.931Z,15.85
2022-10-29T00:16:28.242Z,10.08
2022-10-29T00:18:58.601Z,10.43
2022-10-29T00:21:29.096Z,7.60
2022-10-29T00:23:59.983Z,10.75
2022-10-29T00:26:30.968Z,10.40
2022-10-29T00:29:01.459Z,11.03
2022-10-29T00:31:31.859Z,8.58
2022-10-29T00:34:02.501Z,11.93
2022-10-29T00:36:32.891Z,11.60
2022-10-29T00:39:03.282Z,11.03
2022-10-29T00:41:33.694Z,10.23
2022-10-29T00:44:22.227Z,12.28
2022-10-29T00:46:55.696Z,14.28
2022-10-29T00:49:27.495Z,12.07
2022-10-29T00:51:58.861Z,10.63
2022-10-29T00:54:31.116Z,10.95
2022-10-29T00:57:07.282Z,11.25
2022-10-29T00:59:37.951Z,11.73
2022-10-29T01:02:08.605Z,10.20
2022-10-29T01:04:40.470Z,12.33
2022-10-29T01:07:11.699Z,12.07
2022-10-29T01:09:42.538Z,10.40
2022-10-29T01:15:29.553Z,12.33
2022-10-29T01:18:02.997Z,15.55
2022-10-29T01:20:39.304Z,11.28
2022-10-29T01:23:27.120Z,9.23
2022-10-29T01:26:15.711Z,13.20
2022-10-29T01:29:00.873Z,14.83
2022-10-29T01:31:43.264Z,7.85
2022-10-29T01:34:39.303Z,9.00
2022-10-29T01:37:31.077Z,11.85
2022-10-29T01:40:27.494Z,9.88
2022-10-29T01:43:06.672Z,12.68
2022-10-29T01:45:40.279Z,11.88
2022-10-29T01:48:18.152Z,12.43
2022-10-29T01:50:51.609Z,9.35
2022-10-29T01:53:22.659Z,14.98
2022-10-29T01:55:53.047Z,9.65
2022-10-29T01:58:26.163Z,11.68
2022-10-29T02:01:05.471Z,12.07
2022-10-29T02:03:38.927Z,13.20
2022-10-29T02:06:32.014Z,13.03
2022-10-29T02:09:14.380Z,11.88
2022-10-29T02:11:53.918Z,8.98
2022-10-29T02:14:36.214Z,15.13
2022-10-29T02:17:08.277Z,10.82
2022-10-29T02:19:38.712Z,10.80
2022-10-29T02:22:09.191Z,16.82
2022-10-29T02:24:39.577Z,14.00
2022-10-29T02:27:10.056Z,10.48
2022-10-29T02:29:40.539Z,16.73
2022-10-29T02:32:11.033Z,12.50
2022-10-29T02:34:41.300Z,11.53
2022-10-29T02:37:11.702Z,14.45
2022-10-29T02:39:42.200Z,12.53
2022-10-29T02:42:12.599Z,14.03
2022-10-29T02:44:42.967Z,13.75
2022-10-29T02:47:13.311Z,9.95
2022-10-29T02:49:43.849Z,13.95
2022-10-29T02:52:14.273Z,32.58
2022-10-29T02:54:44.737Z,12.10
2022-10-29T02:57:15.238Z,14.40
2022-10-29T02:59:45.641Z,13.98
2022-10-29T03:02:16.098Z,11.30
2022-10-29T03:04:46.614Z,14.23
2022-10-29T03:07:16.993Z,12.33
2022-10-29T03:09:47.375Z,17.17
2022-10-29T03:12:17.789Z,11.83
2022-10-29T03:14:48.200Z,15.45
2022-10-29T03:17:18.533Z,12.93
2022-10-29T03:19:48.916Z,14.63
2022-10-29T03:22:19.375Z,12.05
2022-10-29T03:24:49.789Z,13.25
2022-10-29T03:27:20.214Z,11.83
2022-10-29T03:29:50.526Z,10.55
2022-10-29T03:32:20.932Z,12.40
2022-10-29T03:34:54.710Z,12.90
2022-10-29T03:37:23.304Z,9.80
2022-10-29T03:39:53.755Z,11.03
2022-10-29T03:42:24.171Z,12.18
2022-10-29T03:44:54.544Z,17.12
2022-10-29T03:47:24.935Z,11.35
2022-10-29T03:49:56.147Z,10.18
2022-10-29T03:52:26.478Z,12.68
2022-10-29T03:54:57.002Z,13.70
2022-10-29T03:57:27.341Z,13.68
2022-10-29T03:59:57.632Z,12.82
2022-10-29T04:02:28.603Z,16.27
2022-10-29T04:04:59.177Z,15.88
2022-10-29T04:07:29.510Z,15.00
2022-10-29T04:09:59.981Z,13.28
2022-10-29T04:12:30.363Z,13.28
2022-10-29T04:15:01.063Z,15.10
2022-10-29T04:17:31.454Z,15.38
2022-10-29T04:20:01.835Z,17.70
2022-10-29T04:24:12.199Z,14.53
2022-10-29T04:30:09.619Z,11.28
2022-10-29T04:32:40.075Z,12.33
2022-10-29T04:35:10.525Z,9.53
2022-10-29T04:37:40.968Z,18.30
2022-10-29T04:40:13.414Z,17.07
2022-10-29T04:42:43.780Z,15.48
2022-10-29T04:45:14.093Z,15.95
2022-10-29T04:47:44.526Z,15.60
2022-10-29T04:50:15.032Z,13.55
2022-10-29T04:52:45.468Z,11.83
2022-10-29T04:55:16.119Z,14.38
2022-10-29T04:57:50.780Z,20.08
2022-10-29T05:00:21.634Z,15.35
2022-10-29T05:02:53.725Z,15.40
2022-10-29T05:05:24.661Z,15.43
2022-10-29T05:07:59.620Z,12.85
2022-10-29T05:10:32.394Z,12.45
2022-10-29T05:13:07.099Z,16.77
2022-10-29T05:15:38.228Z,14.95
2022-10-29T05:18:09.001Z,12.45
2022-10-29T05:20:39.466Z,10.95
2022-10-29T05:23:12.412Z,16.62
2022-10-29T05:25:43.002Z,12.37
2022-10-29T05:28:17.555Z,17.10
2022-10-29T05:30:49.593Z,13.50
2022-10-29T05:33:23.253Z,13.50
2022-10-29T05:35:53.627Z,20.88
2022-10-29T05:38:23.965Z,14.28
2022-10-29T05:40:54.277Z,13.05
2022-10-29T05:43:24.576Z,13.38
2022-10-29T05:45:55.296Z,16.93
2022-10-29T05:48:25.708Z,13.55
2022-10-29T05:50:58.063Z,16.32
2022-10-29T05:53:28.468Z,15.35
2022-10-29T05:55:59.990Z,16.00
2022-10-29T05:58:30.398Z,16.97
2022-10-29T06:01:00.802Z,14.53
2022-10-29T06:03:31.268Z,16.52
2022-10-29T06:06:01.801Z,16.77
2022-10-29T06:08:32.166Z,13.93
2022-10-29T06:11:03.453Z,13.72
2022-10-29T06:13:33.989Z,13.78
2022-10-29T06:16:04.569Z,14.03
2022-10-29T06:18:34.956Z,16.23
2022-10-29T06:21:05.811Z,17.73
2022-10-29T06:23:36.200Z,16.93
2022-10-29T06:26:06.775Z,11.83
2022-10-29T06:28:37.181Z,13.88
2022-10-29T06:31:07.567Z,14.78
2022-10-29T06:33:37.919Z,15.68
2022-10-29T06:36:08.565Z,13.93
2022-10-29T06:38:39.220Z,16.35
2022-10-29T06:41:09.926Z,13.93
2022-10-29T06:43:40.332Z,12.98
2022-10-29T06:46:10.770Z,14.47
2022-10-29T06:48:41.136Z,14.10
2022-10-29T06:51:11.610Z,20.70
2022-10-29T06:53:42.050Z,17.35
2022-10-29T06:56:12.422Z,21.75
2022-10-29T06:58:42.816Z,14.50
2022-10-29T07:01:13.251Z,13.18
2022-10-29T07:03:43.598Z,16.07
2022-10-29T07:06:13.989Z,15.90
2022-10-29T07:08:44.409Z,16.30
2022-10-29T07:11:14.963Z,18.67
2022-10-29T07:13:45.423Z,11.95
2022-10-29T07:16:15.789Z,15.65
2022-10-29T07:18:46.214Z,12.28
2022-10-29T07:21:16.584Z,12.23
2022-10-29T07:23:47.043Z,14.25
2022-10-29T07:26:17.604Z,14.50
2022-10-29T07:28:48.063Z,13.05
2022-10-29T07:31:18.453Z,15.72
2022-10-29T07:33:48.862Z,16.23
2022-10-29T07:36:19.245Z,17.45
2022-10-29T07:38:49.938Z,13.50
2022-10-29T07:41:20.260Z,13.80
2022-10-29T07:43:50.747Z,13.80
2022-10-29T07:46:21.042Z,12.80
2022-10-29T07:48:51.387Z,13.38
2022-10-29T07:51:21.979Z,15.65
2022-10-29T07:53:52.388Z,13.43
2022-10-29T07:56:22.820Z,15.43
2022-10-29T07:58:53.121Z,15.25
2022-10-29T08:01:23.585Z,15.05
2022-10-29T08:03:54.125Z,13.78
2022-10-29T08:06:24.504Z,14.58
2022-10-29T08:08:55.981Z,15.20
2022-10-29T08:11:26.346Z,20.17
2022-10-29T08:13:56.778Z,20.27
2022-10-29T08:16:27.325Z,14.23
2022-10-29T08:18:57.852Z,15.40
2022-10-29T08:21:28.203Z,14.95
2022-10-29T08:23:58.603Z,17.42
2022-10-29T08:26:29.012Z,10.75
2022-10-29T08:28:59.323Z,13.48
2022-10-29T08:31:29.740Z,13.08
2022-10-29T08:34:00.128Z,13.62
2022-10-29T08:36:30.435Z,12.95
2022-10-29T08:39:00.862Z,12.07
2022-10-29T08:41:52.327Z,15.55
2022-10-29T08:44:45.338Z,14.60
2022-10-29T08:47:20.757Z,15.15
2022-10-29T08:50:02.739Z,12.80
2022-10-29T08:52:36.208Z,13.18
2022-10-29T08:55:18.819Z,13.13
2022-10-29T08:58:00.684Z,15.35
2022-10-29T09:00:38.656Z,19.05
2022-10-29T09:03:13.895Z,15.45
2022-10-29T09:05:59.799Z,14.43
2022-10-29T09:08:38.742Z,14.47
2022-10-29T09:11:30.231Z,13.18
2022-10-29T09:14:20.435Z,18.10
2022-10-29T09:16:59.671Z,14.07
2022-10-29T09:19:54.257Z,12.73
2022-10-29T09:22:38.940Z,14.00
2022-10-29T09:25:18.248Z,17.27
2022-10-29T09:28:13.012Z,9.83
2022-10-29T09:30:52.218Z,15.13
2022-10-29T09:33:24.762Z,13.18
2022-10-29T09:35:58.273Z,12.07
2022-10-29T09:38:34.548Z,14.58
2022-10-29T09:41:05.512Z,10.68
2022-10-29T09:43:47.693Z,13.48
2022-10-29T09:46:23.883Z,10.30
2022-10-29T09:48:57.439Z,13.58
2022-10-29T09:51:36.879Z,12.50
2022-10-29T09:54:07.565Z,11.20
2022-10-29T09:56:41.030Z,13.45
2022-10-29T09:59:14.490Z,13.08
2022-10-29T10:01:46.453Z,12.75
2022-10-29T10:04:31.322Z,12.07
2022-10-29T10:07:13.711Z,11.68
2022-10-29T10:09:58.344Z,12.15
2022-10-29T10:12:40.591Z,11.25
2022-10-29T10:15:22.911Z,13.00
2022-10-29T10:18:07.984Z,10.80
2022-10-29T10:20:47.125Z,13.18
2022-10-29T10:23:21.504Z,13.88
2022-10-29T10:26:00.388Z,12.75
2022-10-29T10:28:31.494Z,9.83
2022-10-29T10:31:17.872Z,11.75
2022-10-29T10:33:54.263Z,11.97
2022-10-29T10:36:30.206Z,14.05
2022-10-29T10:39:01.288Z,14.65
2022-10-29T10:41:35.079Z,14.95
2022-10-29T10:44:06.423Z,11.45
2022-10-29T10:46:40.028Z,9.13
2022-10-29T10:49:16.049Z,10.30
2022-10-29T10:51:49.283Z,11.00
2022-10-29T10:54:28.878Z,12.85
2022-10-29T10:57:04.799Z,13.50
2022-10-29T10:59:47.336Z,12.93
2022-10-29T11:02:29.828Z,11.68
2022-10-29T11:05:18.809Z,12.65
2022-10-29T11:08:07.262Z,14.55
2022-10-29T11:10:40.739Z,10.55
2022-10-29T11:13:17.322Z,14.95
2022-10-29T11:15:56.664Z,10.20
2022-10-29T11:18:35.796Z,13.13
2022-10-29T11:21:14.986Z,13.13
2022-10-29T11:24:09.694Z,9.08
2022-10-29T11:26:58.233Z,12.78
2022-10-29T11:29:34.357Z,13.00
2022-10-29T11:32:32.020Z,10.53
2022-10-29T11:35:14.544Z,13.05
2022-10-29T11:38:00.171Z,10.40
2022-10-29T11:40:46.223Z,9.70
2022-10-29T11:43:19.262Z,13.65
2022-10-29T11:46:05.007Z,10.08
2022-10-29T11:48:41.265Z,11.38
2022-10-29T11:51:23.471Z,16.48
2022-10-29T11:54:05.723Z,11.88
2022-10-29T11:56:57.326Z,14.13
2022-10-29T11:59:52.046Z,10.20
2022-10-29T12:02:57.461Z,9.23
2022-10-29T12:05:37.076Z,9.20
2022-10-29T12:08:16.722Z,14.75
2022-10-29T12:10:53.053Z,11.75
2022-10-29T12:13:26.595Z,13.00
2022-10-29T12:16:08.634Z,10.08
2022-10-29T12:18:56.897Z,11.35
2022-10-29T12:21:33.307Z,9.83
2022-10-29T12:24:35.788Z,11.05
2022-10-29T12:27:18.262Z,10.43
2022-10-29T12:30:06.392Z,13.60
2022-10-29T12:32:55.650Z,10.25
2022-10-29T12:35:44.257Z,13.50
2022-10-29T12:38:35.492Z,12.63
2022-10-29T12:41:08.886Z,13.28
2022-10-29T12:43:41.570Z,13.88
2022-10-29T12:46:40.993Z,14.53
2022-10-29T12:49:29.341Z,13.00
2022-10-29T12:52:02.821Z,12.95
2022-10-29T12:54:38.875Z,11.70
2022-10-29T12:57:18.418Z,12.00
2022-10-29T12:59:49.274Z,12.03
2022-10-29T13:02:41.084Z,11.18
2022-10-29T13:05:13.869Z,11.90
2022-10-29T13:07:49.964Z,14.10
2022-10-29T13:10:35.246Z,12.63
2022-10-29T13:13:20.945Z,9.85
2022-10-29T13:16:05.977Z,9.93
2022-10-29T13:18:42.353Z,11.45
2022-10-29T13:21:12.970Z,11.75
2022-10-29T13:23:46.376Z,8.03
2022-10-29T13:26:19.857Z,11.00
2022-10-29T13:28:52.550Z,11.53
2022-10-29T13:31:25.993Z,9.73
2022-10-29T13:33:56.451Z,9.08
2022-10-29T13:36:31.855Z,8.13
2022-10-29T13:39:08.292Z,11.70
2022-10-29T13:41:46.287Z,13.08
2022-10-29T13:44:25.312Z,9.73
2022-10-29T13:47:04.939Z,12.78
2022-10-29T13:49:45.938Z,14.55
2022-10-29T13:52:22.069Z,10.85
2022-10-29T13:55:01.337Z,11.68
2022-10-29T13:57:46.575Z,10.72
2022-10-29T14:00:20.281Z,11.30
2022-10-29T14:03:05.093Z,12.37
2022-10-29T14:05:41.135Z,11.30
2022-10-29T14:08:23.236Z,8.95
2022-10-29T14:10:57.979Z,11.93
2022-10-29T14:13:34.223Z,10.20
2022-10-29T14:16:07.669Z,15.60
2022-10-29T14:18:45.734Z,13.15
2022-10-29T14:21:24.445Z,11.35
2022-10-29T14:24:08.747Z,12.63
2022-10-29T14:26:41.912Z,15.55
2022-10-29T14:29:26.364Z,15.00
2022-10-29T14:32:19.739Z,13.13
2022-10-29T14:34:51.951Z,11.03
2022-10-29T14:37:25.407Z,12.53
2022-10-29T14:39:59.317Z,12.65
2022-10-29T14:42:47.830Z,14.63
2022-10-29T14:45:28.376Z,11.78
2022-10-29T14:48:05.305Z,11.57
2022-10-29T14:50:36.309Z,11.53
2022-10-29T14:53:09.388Z,11.63
2022-10-29T14:55:41.937Z,15.78
2022-10-29T14:58:27.079Z,11.22
2022-10-29T15:01:00.229Z,12.90
2022-10-29T15:03:35.664Z,12.25
2022-10-29T15:06:22.016Z,14.07
2022-10-29T15:09:07.411Z,12.63
2022-10-29T15:11:40.777Z,13.30
2022-10-29T15:14:37.905Z,13.38
2022-10-29T15:17:11.561Z,12.73
2022-10-29T15:19:45.665Z,12.00
2022-10-29T15:22:19.127Z,16.17
2022-10-29T15:24:51.268Z,14.20
2022-10-29T15:27:24.440Z,14.55
2022-10-29T15:29:56.227Z,13.38
2022-10-29T15:32:31.419Z,14.63
2022-10-29T15:35:01.378Z,17.00
2022-10-29T15:37:43.973Z,13.98
2022-10-29T15:40:19.170Z,16.23
2022-10-29T15:42:50.028Z,29.98
2022-10-29T15:45:28.959Z,30.32
2022-10-29T15:48:12.156Z,49.83
2022-10-29T15:50:45.491Z,22.60
2022-10-29T15:53:17.839Z,19.00
2022-10-29T15:55:51.816Z,18.15
2022-10-29T15:58:23.510Z,17.60
2022-10-29T16:00:53.887Z,17.62
2022-10-29T16:03:26.782Z,23.30
2022-10-29T16:06:03.691Z,46.33
2022-10-29T16:08:42.199Z,28.62
2022-10-29T16:11:15.245Z,21.95
2022-10-29T16:13:48.986Z,17.60
2022-10-29T16:16:20.324Z,23.20
2022-10-29T16:18:51.971Z,31.20
2022-10-29T16:21:25.522Z,19.17
2022-10-29T16:23:56.064Z,17.20
2022-10-29T16:26:27.490Z,17.87
2022-10-29T16:28:57.905Z,18.98
2022-10-29T16:31:29.944Z,14.80
2022-10-29T16:34:03.365Z,18.73
2022-10-29T16:36:33.729Z,19.37
2022-10-29T16:39:04.114Z,17.77
2022-10-29T16:41:35.560Z,22.40
2022-10-29T16:44:05.997Z,19.10
2022-10-29T16:46:36.415Z,17.05
2022-10-29T16:49:06.812Z,15.05
2022-10-29T16:51:37.208Z,16.55
2022-10-29T16:54:07.621Z,16.97
2022-10-29T16:56:37.941Z,19.10
2022-10-29T16:59:08.511Z,15.38
2022-10-29T17:01:38.908Z,16.45
2022-10-29T17:04:09.446Z,29.37
2022-10-29T17:06:39.880Z,63.38
2022-10-29T17:09:10.272Z,26.48
2022-10-29T17:11:40.782Z,24.23
2022-10-29T17:14:11.339Z,25.95
2022-10-29T17:16:41.737Z,23.02
2022-10-29T17:19:12.237Z,18.07
2022-10-29T17:21:42.901Z,30.97
2022-10-29T17:24:13.304Z,28.45
2022-10-29T17:26:43.774Z,26.68
2022-10-29T17:29:14.173Z,21.23
2022-10-29T17:31:44.658Z,21.70
2022-10-29T17:34:14.983Z,23.45
2022-10-29T17:36:45.299Z,20.82
2022-10-29T17:39:15.798Z,24.92
2022-10-29T17:41:46.132Z,20.25
2022-10-29T17:44:16.649Z,25.95
2022-10-29T17:46:47.040Z,21.75
2022-10-29T17:49:17.434Z,20.12
2022-10-29T17:51:47.893Z,25.12
2022-10-29T17:54:18.610Z,18.45
2022-10-29T17:56:49.084Z,20.68
2022-10-29T17:59:19.473Z,20.72
2022-10-29T18:01:50.338Z,21.50
2022-10-29T18:04:20.853Z,20.55
2022-10-29T18:06:51.365Z,22.22
2022-10-29T18:09:21.727Z,21.62
2022-10-29T18:11:52.082Z,20.30
2022-10-29T18:14:22.435Z,17.05
2022-10-29T18:16:52.896Z,22.65
2022-10-29T18:19:23.803Z,19.65
2022-10-29T18:21:54.261Z,22.32
2022-10-29T18:24:24.806Z,18.57
2022-10-29T18:26:55.139Z,34.60
2022-10-29T18:29:25.472Z,24.25
2022-10-29T18:31:55.951Z,18.70
2022-10-29T18:34:26.292Z,21.85
2022-10-29T18:36:56.607Z,19.73
2022-10-29T18:39:27.062Z,21.00
2022-10-29T18:41:57.436Z,20.72
2022-10-29T18:44:28.009Z,21.62
2022-10-29T18:46:58.536Z,22.55
2022-10-29T18:49:28.933Z,19.52
2022-10-29T18:51:59.321Z,19.98
2022-10-29T18:54:29.846Z,35.28
2022-10-29T18:57:00.405Z,24.70
2022-10-29T18:59:30.933Z,26.45
2022-10-29T19:02:01.441Z,28.25
2022-10-29T19:04:32.051Z,21.93
2022-10-29T19:07:02.432Z,27.70
2022-10-29T19:09:32.849Z,23.27
2022-10-29T19:12:03.240Z,49.00
2022-10-29T19:14:33.677Z,27.20
2022-10-29T19:17:04.064Z,28.47
2022-10-29T19:19:34.462Z,24.75
2022-10-29T19:22:04.774Z,22.20
2022-10-29T19:24:35.168Z,20.37
2022-10-29T19:27:05.593Z,19.35
2022-10-29T19:29:36.032Z,20.82
2022-10-29T19:32:06.612Z,23.10
2022-10-29T19:37:07.418Z,24.75
2022-10-29T19:39:37.858Z,21.68
2022-10-29T19:42:08.252Z,22.00
2022-10-29T19:44:38.671Z,22.40
2022-10-29T19:47:09.016Z,25.45
2022-10-29T19:49:39.453Z,21.60
2022-10-29T19:52:09.764Z,22.93
2022-10-29T19:54:40.180Z,22.32
2022-10-29T19:57:10.526Z,24.50
2022-10-29T19:59:40.895Z,19.92
2022-10-29T20:02:12.913Z,19.27
2022-10-29T20:04:43.426Z,20.00
2022-10-29T20:07:13.837Z,20.57
2022-10-29T20:09:44.181Z,22.58
2022-10-29T20:12:14.657Z,22.75
2022-10-29T20:14:45.110Z,21.48
2022-10-29T20:17:16.659Z,22.35
2022-10-29T20:19:47.263Z,23.07
2022-10-29T20:22:17.661Z,23.45
2022-10-29T20:24:48.078Z,24.30
2022-10-29T20:27:18.599Z,20.43
2022-10-29T20:29:50.748Z,21.97
2022-10-29T20:32:21.184Z,23.42
2022-10-29T20:34:52.522Z,25.27
2022-10-29T20:37:22.982Z,21.65
2022-10-29T20:39:53.504Z,23.92
2022-10-29T20:42:24.062Z,24.98
2022-10-29T20:44:54.467Z,29.42
2022-10-29T20:47:25.013Z,20.45
2022-10-29T20:49:55.373Z,17.37
2022-10-29T20:52:25.839Z,24.47
2022-10-29T20:54:56.217Z,21.15
2022-10-29T20:57:26.543Z,22.87
2022-10-29T20:59:58.476Z,19.77
2022-10-29T21:02:29.005Z,21.15
2022-10-29T21:04:59.657Z,19.50
2022-10-29T21:07:30.069Z,22.52
2022-10-29T21:10:00.585Z,29.85
2022-10-29T21:12:30.986Z,31.15
2022-10-29T21:15:01.492Z,23.15
2022-10-29T21:17:33.588Z,20.40
2022-10-29T21:20:04.182Z,34.25
2022-10-29T21:22:34.711Z,20.82
2022-10-29T21:25:05.477Z,23.75
2022-10-29T21:27:35.965Z,25.75
2022-10-29T21:30:07.472Z,23.57
2022-10-29T21:32:37.851Z,24.32
2022-10-29T21:35:09.406Z,26.50
2022-10-29T21:37:40.037Z,22.50
2022-10-29T21:40:11.368Z,28.57
2022-10-29T21:42:41.782Z,24.07
2022-10-29T21:45:12.285Z,27.17
2022-10-29T21:47:42.697Z,20.40
2022-10-29T21:50:13.143Z,24.80
2022-10-29T21:52:43.476Z,23.87
2022-10-29T21:55:14.039Z,26.68
2022-10-29T21:57:44.802Z,25.35
2022-10-29T22:00:16.993Z,26.75
2022-10-29T22:02:47.325Z,29.80
2022-10-29T22:05:18.011Z,22.77
2022-10-29T22:07:48.385Z,25.88
2022-10-29T22:10:19.174Z,22.48
2022-10-29T22:12:49.612Z,21.93
2022-10-29T22:15:20.037Z,29.30
2022-10-29T22:17:50.440Z,28.12
2022-10-29T22:20:20.842Z,23.05
2022-10-29T22:22:51.305Z,27.77
2022-10-29T22:25:21.888Z,26.93
2022-10-29T22:27:52.302Z,23.07
2022-10-29T22:30:22.937Z,23.75
2022-10-29T22:32:53.318Z,24.55
2022-10-29T22:35:23.818Z,24.85
2022-10-29T22:37:55.627Z,28.02
2022-10-29T22:40:26.484Z,26.75
2022-10-29T22:42:57.136Z,25.80
2022-10-29T22:45:28.058Z,24.80
2022-10-29T22:47:58.405Z,25.20
2022-10-29T22:50:28.854Z,28.47
2022-10-29T22:52:59.480Z,23.20
2022-10-29T22:55:31.434Z,22.77
2022-10-29T22:58:01.795Z,24.05
2022-10-29T23:00:32.233Z,23.73
2022-10-29T23:03:02.638Z,22.40
2022-10-29T23:05:33.160Z,22.07
2022-10-29T23:08:03.546Z,27.17
2022-10-29T23:10:34.137Z,23.20
2022-10-29T23:13:04.548Z,24.55
2022-10-29T23:15:34.946Z,23.40
2022-10-29T23:18:05.455Z,25.25
2022-10-29T23:20:35.806Z,25.40
2022-10-29T23:23:06.313Z,25.97
2022-10-29T23:25:36.784Z,22.95
2022-10-29T23:28:07.180Z,26.15
2022-10-29T23:30:37.610Z,23.50
2022-10-29T23:33:07.999Z,21.55
2022-10-29T23:35:38.399Z,25.55
2022-10-29T23:38:08.808Z,21.60
2022-10-29T23:40:39.089Z,23.07
2022-10-29T23:43:09.526Z,22.58
2022-10-29T23:45:42.080Z,24.70
2022-10-29T23:48:12.885Z,26.20
2022-10-29T23:50:43.472Z,26.20
2022-10-29T23:53:14.223Z,25.72
2022-10-29T23:55:45.461Z,24.50
2022-10-29T23:58:16.816Z,24.80
